Time;durP1;ratioP1;P1;durP2;ratioP2;P2;SDS_P1;SDS_P2;PMS_P1;PMS_P2;Temp;Humidity;BMP_temperature;BMP_pressure;BME280_temperature;BME280_humidity;BME280_pressure;Samples;Min_cycle;Max_cycle;Signal;HPM_P1;HPM_P2
2022/07/12 00:01:59;;;;;;;0.70;0.55;;;24.70;58.30;;;;;;6216565;23;20068;-73
2022/07/12 00:04:24;;;;;;;1.23;0.65;;;24.70;58.30;;;;;;6216408;23;20007;-73
2022/07/12 00:06:50;;;;;;;1.60;0.60;;;24.80;58.30;;;;;;6189916;23;20008;-73
2022/07/12 00:09:16;;;;;;;1.65;0.77;;;24.70;58.20;;;;;;6215776;23;20004;-73
2022/07/12 00:11:42;;;;;;;1.50;0.70;;;24.70;59.20;;;;;;6189839;23;20001;-73
2022/07/12 00:14:07;;;;;;;1.40;0.73;;;24.70;58.30;;;;;;6216235;23;20338;-73
2022/07/12 00:16:33;;;;;;;0.90;0.63;;;24.70;58.30;;;;;;6189671;23;20007;-73
2022/07/12 00:18:59;;;;;;;1.08;0.60;;;24.70;59.30;;;;;;6189586;23;20357;-73
2022/07/12 00:21:25;;;;;;;1.63;0.95;;;24.70;58.30;;;;;;6216221;23;20005;-73
2022/07/12 00:23:50;;;;;;;1.67;0.73;;;24.70;58.30;;;;;;6189466;23;19996;-73
2022/07/12 00:26:16;;;;;;;2.17;0.88;;;24.70;58.40;;;;;;6216179;23;20496;-73
2022/07/12 00:28:42;;;;;;;2.38;0.80;;;24.70;58.30;;;;;;6216287;23;20001;-73
2022/07/12 00:31:07;;;;;;;1.73;0.70;;;24.60;59.20;;;;;;6215881;23;20004;-73
2022/07/12 00:33:33;;;;;;;2.13;0.85;;;24.70;58.30;;;;;;6216128;23;20004;-73
2022/07/12 00:35:58;;;;;;;1.25;0.65;;;24.60;58.30;;;;;;6215778;23;20026;-73
2022/07/12 00:38:24;;;;;;;0.77;0.77;;;24.60;58.30;;;;;;6215535;23;20001;-73
2022/07/12 00:40:50;;;;;;;1.52;0.88;;;24.60;58.30;;;;;;6215585;23;20361;-73
2022/07/12 00:43:15;;;;;;;1.58;0.80;;;24.60;58.30;;;;;;6215961;23;20438;-73
2022/07/12 00:45:41;;;;;;;1.50;0.70;;;24.70;58.50;;;;;;6215810;23;20322;-73
2022/07/12 00:48:07;;;;;;;0.77;0.60;;;24.60;58.30;;;;;;6216009;23;20009;-73
2022/07/12 00:50:33;;;;;;;0.70;0.70;;;24.60;58.30;;;;;;6189335;23;20336;-73
2022/07/12 00:52:58;;;;;;;1.67;0.68;;;24.60;58.20;;;;;;6215548;23;19997;-73
2022/07/12 00:55:24;;;;;;;2.00;0.82;;;24.60;58.30;;;;;;6189402;23;20440;-73
2022/07/12 00:57:50;;;;;;;0.90;0.70;;;24.60;58.30;;;;;;6215834;23;20005;-73
2022/07/12 01:00:18;;;;;;;1.08;0.73;;;24.50;58.30;;;;;;6215823;23;20042;-73
2022/07/12 01:02:44;;;;;;;1.98;0.60;;;24.60;59.30;;;;;;6215848;23;20011;-73
2022/07/12 01:05:10;;;;;;;1.10;0.70;;;24.60;58.40;;;;;;6189209;23;20004;-73
2022/07/12 01:07:36;;;;;;;1.80;0.88;;;24.50;58.40;;;;;;6215496;23;20001;-73
2022/07/12 01:10:02;;;;;;;1.00;0.60;;;24.50;58.40;;;;;;6189253;23;20005;-73
2022/07/12 01:12:28;;;;;;;1.27;0.70;;;24.50;58.40;;;;;;6215626;23;20444;-73
2022/07/12 01:14:54;;;;;;;0.77;0.75;;;24.50;58.40;;;;;;6164390;23;19997;-73
2022/07/12 01:17:24;;;;;;;1.42;0.80;;;24.50;58.40;;;;;;6189086;23;20036;-73
2022/07/12 01:19:51;;;;;;;1.20;0.70;;;24.50;58.40;;;;;;6189248;23;20000;-73
2022/07/12 01:22:17;;;;;;;0.70;0.70;;;24.50;58.40;;;;;;6164186;23;20520;-73
2022/07/12 01:24:43;;;;;;;1.08;0.82;;;24.50;58.50;;;;;;6189399;23;20058;-73
2022/07/12 01:27:09;;;;;;;1.13;0.80;;;24.50;58.50;;;;;;6188962;23;20062;-73
2022/07/12 01:29:35;;;;;;;1.05;0.80;;;24.50;58.50;;;;;;6189203;23;20055;-73
2022/07/12 01:34:49;;;;;;;1.33;0.70;;;24.50;58.50;;;;;;6172140;23;20082;-73
2022/07/12 01:37:15;;;;;;;1.42;0.80;;;24.50;58.50;;;;;;6214980;23;20012;-73
2022/07/12 01:39:41;;;;;;;0.70;0.70;;;24.50;58.50;;;;;;6215073;23;20020;-73
2022/07/12 01:42:06;;;;;;;1.05;0.68;;;24.40;58.40;;;;;;6189211;23;20004;-73
2022/07/12 01:44:32;;;;;;;1.40;0.85;;;24.50;58.50;;;;;;6215281;23;20076;-73
2022/07/12 01:47:01;;;;;;;1.00;0.68;;;24.50;58.50;;;;;;6215134;23;20084;-73
2022/07/12 01:49:26;;;;;;;0.70;0.68;;;24.50;58.50;;;;;;6188730;23;20036;-73
2022/07/12 01:51:54;;;;;;;1.38;0.80;;;24.50;58.50;;;;;;6214586;23;20003;-73
2022/07/12 01:54:19;;;;;;;1.25;0.77;;;24.40;58.50;;;;;;6188797;23;20445;-73
2022/07/12 01:56:45;;;;;;;0.80;0.80;;;24.40;58.50;;;;;;6188826;23;20004;-73
2022/07/12 01:59:11;;;;;;;1.38;0.88;;;24.40;59.50;;;;;;6214888;23;19997;-73
2022/07/12 02:01:37;;;;;;;3.90;0.80;;;24.40;58.50;;;;;;6188788;23;20012;-73
2022/07/12 02:04:03;;;;;;;0.70;0.70;;;24.40;58.40;;;;;;6188953;23;20515;-73
2022/07/12 02:06:29;;;;;;;0.95;0.60;;;24.40;58.40;;;;;;6214742;23;19997;-73
2022/07/12 02:08:55;;;;;;;0.90;0.60;;;24.40;58.50;;;;;;6164292;23;20000;-73
2022/07/12 02:11:20;;;;;;;2.03;0.93;;;24.40;58.40;;;;;;6214867;23;20004;-73
2022/07/12 02:13:46;;;;;;;0.85;0.70;;;24.40;58.50;;;;;;6188547;23;20091;-73
2022/07/12 02:16:11;;;;;;;1.08;0.70;;;24.40;58.60;;;;;;6214954;23;20047;-73
2022/07/12 02:18:37;;;;;;;2.95;0.70;;;24.40;58.50;;;;;;6214880;23;20446;-73
2022/07/12 02:21:03;;;;;;;1.23;0.60;;;24.40;58.60;;;;;;6214814;23;20000;-73
2022/07/12 02:23:28;;;;;;;1.10;0.70;;;24.40;58.50;;;;;;6214991;23;20000;-73
2022/07/12 02:25:54;;;;;;;0.85;0.73;;;24.40;58.50;;;;;;6214945;23;20435;-73
2022/07/12 02:28:20;;;;;;;0.70;0.63;;;24.40;58.50;;;;;;6214846;23;20314;-73
2022/07/12 02:30:46;;;;;;;1.20;0.50;;;24.40;58.50;;;;;;6214872;23;20001;-73
2022/07/12 02:33:15;;;;;;;0.73;0.70;;;24.40;58.60;;;;;;6214653;23;20003;-73
2022/07/12 02:35:41;;;;;;;2.00;0.60;;;24.40;58.60;;;;;;6188808;23;20002;-73
2022/07/12 02:38:07;;;;;;;1.38;0.75;;;24.40;58.60;;;;;;6188942;23;20005;-73
2022/07/12 02:43:17;;;;;;;1.50;0.75;;;24.30;58.50;;;;;;6214704;23;20062;-73
2022/07/12 02:45:42;;;;;;;1.88;0.77;;;24.30;58.50;;;;;;6214828;23;20005;-73
2022/07/12 02:48:10;;;;;;;0.82;0.60;;;24.30;58.50;;;;;;6214668;23;20087;-73
2022/07/12 02:50:37;;;;;;;2.80;0.70;;;24.30;58.50;;;;;;6214682;23;20523;-73
2022/07/12 02:53:03;;;;;;;0.85;0.70;;;24.30;58.50;;;;;;6214640;23;19996;-73
2022/07/12 02:55:29;;;;;;;0.60;0.60;;;24.30;58.50;;;;;;6188429;23;19996;-73
2022/07/12 02:57:54;;;;;;;0.50;0.50;;;24.30;58.50;;;;;;6214640;23;20005;-73
2022/07/12 03:00:20;;;;;;;1.02;0.60;;;24.30;58.40;;;;;;6214605;23;20008;-73
2022/07/12 03:02:46;;;;;;;0.85;0.68;;;24.30;58.40;;;;;;6187951;23;20005;-73
2022/07/12 03:05:12;;;;;;;0.80;0.57;;;24.30;58.50;;;;;;6214672;23;20098;-73
2022/07/12 03:07:37;;;;;;;0.60;0.60;;;24.30;58.40;;;;;;6188318;23;20004;-73
2022/07/12 03:10:04;;;;;;;1.88;0.70;;;24.30;58.50;;;;;;6214503;23;20005;-73
2022/07/12 03:12:29;;;;;;;0.82;0.70;;;24.30;58.50;;;;;;6188075;23;20004;-73
2022/07/12 03:14:55;;;;;;;1.13;0.90;;;24.30;58.50;;;;;;6214653;23;20003;-73
2022/07/12 03:17:21;;;;;;;0.95;0.60;;;24.30;58.40;;;;;;6214172;23;20452;-73
2022/07/12 03:19:47;;;;;;;0.75;0.68;;;24.30;58.40;;;;;;6214652;23;20437;-73
2022/07/12 03:22:12;;;;;;;1.35;0.80;;;24.30;58.40;;;;;;6214549;23;20001;-73
2022/07/12 03:24:38;;;;;;;0.50;0.50;;;24.30;58.40;;;;;;6214545;23;20008;-73
2022/07/12 03:27:04;;;;;;;0.77;0.70;;;24.30;58.50;;;;;;6214409;23;20005;-73
2022/07/12 03:29:29;;;;;;;2.25;0.70;;;24.30;58.40;;;;;;6214493;23;20445;-73
2022/07/12 03:31:55;;;;;;;0.85;0.60;;;24.30;58.50;;;;;;6214299;23;20005;-73
2022/07/12 03:34:20;;;;;;;0.50;0.50;;;24.30;58.40;;;;;;6214507;23;20004;-73
2022/07/12 03:36:46;;;;;;;0.57;0.50;;;24.30;58.40;;;;;;6214428;23;20009;-73
2022/07/12 03:39:12;;;;;;;0.60;0.60;;;24.30;58.30;;;;;;6214217;23;20433;-73
2022/07/12 03:41:38;;;;;;;0.85;0.65;;;24.30;58.40;;;;;;6188014;23;20370;-73
2022/07/12 03:44:03;;;;;;;0.77;0.50;;;24.30;58.30;;;;;;6214603;23;20349;-73
2022/07/12 03:46:29;;;;;;;0.88;0.60;;;24.30;58.40;;;;;;6214191;23;19997;-73
2022/07/12 03:48:55;;;;;;;1.05;0.70;;;24.30;58.30;;;;;;6214479;23;20385;-73
2022/07/12 03:51:21;;;;;;;0.70;0.60;;;24.30;58.30;;;;;;6187857;23;20071;-73
2022/07/12 03:53:46;;;;;;;0.77;0.70;;;24.30;58.30;;;;;;6214422;23;20076;-73
2022/07/12 03:57:13;;;;;;;0.60;0.60;;;24.30;58.40;;;;;;6214346;23;20023;-73
2022/07/12 03:58:57;;;;;;;0.50;0.50;;;24.20;58.20;;;;;;6213979;23;20004;-73
2022/07/12 04:01:23;;;;;;;5.40;0.70;;;24.30;58.30;;;;;;6214602;23;20012;-73
2022/07/12 04:03:49;;;;;;;0.50;0.50;;;24.20;58.20;;;;;;6214194;23;20377;-73
2022/07/12 04:06:14;;;;;;;2.15;0.60;;;24.20;58.20;;;;;;6214391;23;20434;-73
2022/07/12 04:08:40;;;;;;;0.50;0.50;;;24.20;58.20;;;;;;6214435;23;20047;-73
2022/07/12 04:11:06;;;;;;;0.77;0.70;;;24.20;58.10;;;;;;6214148;23;20001;-73
2022/07/12 04:13:32;;;;;;;0.57;0.57;;;24.20;58.00;;;;;;6214541;23;20008;-73
2022/07/12 04:15:58;;;;;;;1.08;0.60;;;24.20;58.10;;;;;;6215778;23;20464;-73
2022/07/12 04:18:24;;;;;;;0.70;0.65;;;24.20;58.10;;;;;;6189696;23;20004;-73
2022/07/12 04:20:49;;;;;;;1.15;0.55;;;24.20;58.00;;;;;;6189886;23;20005;-73
2022/07/12 04:23:15;;;;;;;1.02;0.50;;;24.20;58.00;;;;;;6189557;23;20032;-73
2022/07/12 04:25:41;;;;;;;1.02;0.60;;;24.20;57.80;;;;;;6216040;23;20080;-73
2022/07/12 04:28:06;;;;;;;2.78;0.60;;;24.20;57.70;;;;;;6216087;23;20026;-73
2022/07/12 04:30:32;;;;;;;0.70;0.50;;;24.20;57.80;;;;;;6215518;23;20005;-73
2022/07/12 04:32:57;;;;;;;0.57;0.57;;;24.20;57.90;;;;;;6216065;23;20039;-73
2022/07/12 04:35:23;;;;;;;1.00;0.73;;;24.20;57.90;;;;;;6215768;23;20433;-73
2022/07/12 04:37:49;;;;;;;1.17;0.70;;;24.20;57.90;;;;;;6189415;23;19996;-73
2022/07/12 04:40:15;;;;;;;1.08;0.60;;;24.20;57.70;;;;;;6215758;23;20013;-73
2022/07/12 04:42:40;;;;;;;0.60;0.60;;;24.20;57.70;;;;;;6189596;23;20083;-73
2022/07/12 04:45:06;;;;;;;1.95;0.73;;;24.10;57.70;;;;;;6215553;23;20001;-73
2022/07/12 04:47:36;;;;;;;1.42;0.50;;;24.10;57.80;;;;;;6189600;23;20021;-73
2022/07/12 04:50:05;;;;;;;0.95;0.50;;;24.10;57.60;;;;;;6189557;23;20453;-73
2022/07/12 04:52:30;;;;;;;0.40;0.40;;;24.10;57.60;;;;;;6215872;23;20073;-73
2022/07/12 04:54:56;;;;;;;1.13;0.45;;;24.10;57.50;;;;;;6215891;23;20492;-73
2022/07/12 04:57:21;;;;;;;1.38;0.50;;;24.10;57.60;;;;;;6215850;23;20075;-73
2022/07/12 04:59:47;;;;;;;0.93;0.60;;;24.10;57.20;;;;;;6215211;23;20076;-73
2022/07/12 05:02:13;;;;;;;1.52;0.60;;;24.10;57.10;;;;;;6215923;23;20005;-73
2022/07/12 05:04:38;;;;;;;1.95;0.70;;;24.10;57.10;;;;;;6215680;23;20007;-73
2022/07/12 05:07:04;;;;;;;0.55;0.47;;;24.10;57.00;;;;;;6215890;23;20009;-73
2022/07/12 05:09:29;;;;;;;0.73;0.73;;;24.10;57.00;;;;;;6215692;23;20005;-73
2022/07/12 05:11:55;;;;;;;0.50;0.50;;;24.10;57.10;;;;;;6215402;23;20000;-73
2022/07/12 05:14:20;;;;;;;0.55;0.50;;;24.10;56.90;;;;;;6215504;23;20023;-73
2022/07/12 05:16:46;;;;;;;2.13;0.70;;;24.10;57.00;;;;;;6215929;23;20521;-73
2022/07/12 05:19:12;;;;;;;0.93;0.60;;;24.10;57.00;;;;;;6215653;23;20007;-73
2022/07/12 05:21:37;;;;;;;0.82;0.40;;;24.10;57.00;;;;;;6215665;23;20004;-73
2022/07/12 05:24:03;;;;;;;1.70;0.60;;;24.00;56.90;;;;;;6215609;23;20507;-73
2022/07/12 05:26:29;;;;;;;0.88;0.50;;;24.10;57.10;;;;;;6215649;23;20012;-73
2022/07/12 05:28:55;;;;;;;1.85;0.50;;;24.00;56.70;;;;;;6189012;23;20000;-73
2022/07/12 05:31:20;;;;;;;0.77;0.50;;;24.10;56.70;;;;;;6215402;23;20005;-73
2022/07/12 05:33:46;;;;;;;0.70;0.70;;;24.00;56.60;;;;;;6215427;23;20027;-73
2022/07/12 05:36:12;;;;;;;0.40;0.40;;;24.00;56.50;;;;;;6215484;23;19996;-73
2022/07/12 05:38:38;;;;;;;1.55;0.60;;;24.00;56.70;;;;;;6188750;23;20070;-73
2022/07/12 05:41:03;;;;;;;0.60;0.60;;;24.10;56.90;;;;;;6215209;23;20040;-73
2022/07/12 05:43:29;;;;;;;1.90;0.70;;;24.00;56.90;;;;;;6215161;23;20000;-73
2022/07/12 05:45:55;;;;;;;2.33;0.70;;;24.00;56.90;;;;;;6188823;23;20007;-73
2022/07/12 05:48:21;;;;;;;0.52;0.43;;;24.10;57.00;;;;;;6188714;23;20005;-73
2022/07/12 05:50:46;;;;;;;0.95;0.50;;;24.10;56.80;;;;;;6215320;23;20005;-73
2022/07/12 05:53:21;;;;;;;0.95;0.50;;;24.00;56.90;;;;;;6215293;23;20024;-73
2022/07/12 05:55:48;;;;;;;0.40;0.40;;;24.00;57.00;;;;;;6215334;23;19997;-73
2022/07/12 05:58:13;;;;;;;0.65;0.47;;;24.00;56.80;;;;;;6214906;23;20021;-73
2022/07/12 06:00:39;;;;;;;1.08;0.63;;;24.00;56.90;;;;;;6188567;23;20007;-73
2022/07/12 06:03:04;;;;;;;0.55;0.55;;;24.10;57.00;;;;;;6215131;23;20005;-73
2022/07/12 06:05:30;;;;;;;1.58;0.50;;;24.10;57.00;;;;;;6163758;23;20381;-73
2022/07/12 06:07:56;;;;;;;0.70;0.70;;;24.10;56.90;;;;;;6215185;23;20012;-73
2022/07/12 06:10:22;;;;;;;1.85;0.50;;;24.00;56.90;;;;;;6215095;23;20005;-73
2022/07/12 06:12:48;;;;;;;1.48;0.55;;;24.10;57.00;;;;;;6214843;23;20392;-73
2022/07/12 06:15:13;;;;;;;0.30;0.30;;;24.10;57.00;;;;;;6214993;23;20424;-73
2022/07/12 06:17:39;;;;;;;1.08;0.60;;;24.10;57.00;;;;;;6214940;23;19996;-73
2022/07/12 06:20:05;;;;;;;1.67;0.60;;;24.10;56.90;;;;;;6215048;23;20000;-73
2022/07/12 06:22:31;;;;;;;0.82;0.50;;;24.10;57.20;;;;;;6215132;23;20005;-73
2022/07/12 06:24:56;;;;;;;0.50;0.50;;;24.10;57.00;;;;;;6215051;23;20015;-73
2022/07/12 06:27:22;;;;;;;2.00;0.50;;;24.10;57.20;;;;;;6214711;23;20006;-73
2022/07/12 06:29:48;;;;;;;1.40;0.70;;;24.10;57.00;;;;;;6214736;23;20001;-73
2022/07/12 06:32:16;;;;;;;0.95;0.60;;;24.10;57.50;;;;;;6215182;23;20338;-73
2022/07/12 06:34:42;;;;;;;0.90;0.65;;;24.10;57.00;;;;;;6188568;23;20000;-73
2022/07/12 06:37:08;;;;;;;0.80;0.50;;;24.10;57.10;;;;;;6214459;23;20012;-73
2022/07/12 06:39:35;;;;;;;0.50;0.50;;;24.10;57.20;;;;;;6214934;23;20035;-73
2022/07/12 06:42:03;;;;;;;0.50;0.50;;;24.10;57.30;;;;;;6188183;23;20032;-73
2022/07/12 06:44:30;;;;;;;1.02;0.70;;;24.10;57.30;;;;;;6164522;23;20055;-73
2022/07/12 06:46:56;;;;;;;2.13;0.50;;;24.10;57.30;;;;;;6214846;23;20361;-73
2022/07/12 06:49:22;;;;;;;1.02;0.73;;;24.10;57.20;;;;;;6188417;23;20001;-73
2022/07/12 06:51:48;;;;;;;2.47;0.55;;;24.10;57.30;;;;;;6214782;23;20000;-73
2022/07/12 06:54:13;;;;;;;0.63;0.40;;;24.10;57.30;;;;;;6214856;23;20011;-73
2022/07/12 06:56:39;;;;;;;1.95;0.70;;;24.10;57.30;;;;;;6163396;23;20001;-73
2022/07/12 06:59:04;;;;;;;1.65;0.90;;;24.10;57.20;;;;;;6214690;23;19997;-73
2022/07/12 07:01:30;;;;;;;0.82;0.60;;;24.10;57.30;;;;;;6214628;23;20322;-73
2022/07/12 07:03:56;;;;;;;0.95;0.60;;;24.10;57.30;;;;;;6214790;23;20001;-73
2022/07/12 07:06:21;;;;;;;1.48;0.50;;;24.10;57.20;;;;;;6214539;23;20029;-73
2022/07/12 07:08:47;;;;;;;2.72;0.52;;;24.10;57.40;;;;;;6214820;23;20493;-73
2022/07/12 07:11:13;;;;;;;1.65;0.60;;;24.10;57.40;;;;;;6214242;23;20005;-73
2022/07/12 07:13:38;;;;;;;1.15;0.77;;;24.10;57.50;;;;;;6188263;23;20034;-73
2022/07/12 07:16:05;;;;;;;0.40;0.40;;;24.10;57.60;;;;;;6214741;23;20001;-73
2022/07/12 07:18:31;;;;;;;0.45;0.45;;;24.10;57.60;;;;;;6214782;23;20023;-73
2022/07/12 07:20:56;;;;;;;0.65;0.50;;;24.20;57.70;;;;;;6214617;23;20346;-73
2022/07/12 07:23:22;;;;;;;1.45;0.65;;;24.20;57.70;;;;;;6214456;23;20000;-73
2022/07/12 07:25:47;;;;;;;2.15;0.70;;;24.20;57.70;;;;;;6214493;23;20008;-73
2022/07/12 07:28:13;;;;;;;0.50;0.50;;;24.20;57.90;;;;;;6188467;23;20004;-73
2022/07/12 07:30:54;;;;;;;0.63;0.50;;;24.10;58.00;;;;;;6188483;23;20009;-73
2022/07/12 07:33:23;;;;;;;0.50;0.50;;;24.20;58.20;;;;;;6214415;23;20264;-73
2022/07/12 07:35:49;;;;;;;0.63;0.50;;;24.20;58.10;;;;;;6214350;23;20051;-73
2022/07/12 07:38:15;;;;;;;1.75;0.60;;;24.20;58.20;;;;;;6188134;23;20005;-73
2022/07/12 07:40:41;;;;;;;1.23;0.60;;;24.20;58.20;;;;;;6158231;23;20024;-73
2022/07/12 07:43:07;;;;;;;0.75;0.60;;;24.20;58.30;;;;;;6183137;23;20001;-73
2022/07/12 07:45:32;;;;;;;0.82;0.50;;;24.20;58.30;;;;;;6184209;23;20506;-73
2022/07/12 07:47:58;;;;;;;1.63;0.55;;;24.20;58.40;;;;;;6183051;23;20009;-73
2022/07/12 07:50:24;;;;;;;1.50;0.60;;;24.20;58.50;;;;;;6185991;23;20047;-73
2022/07/12 07:52:51;;;;;;;0.65;0.50;;;24.20;58.50;;;;;;6186175;23;19997;-73
2022/07/12 07:55:17;;;;;;;2.30;0.77;;;24.30;58.60;;;;;;6186158;23;20346;-73
2022/07/12 07:57:42;;;;;;;1.08;0.57;;;24.30;58.60;;;;;;6184861;23;20067;-73
2022/07/12 08:00:09;;;;;;;1.58;0.50;;;24.20;58.60;;;;;;6184801;23;20445;-73
2022/07/12 08:02:34;;;;;;;1.40;0.55;;;24.30;58.60;;;;;;6186276;23;20009;-73
2022/07/12 08:05:00;;;;;;;1.77;0.63;;;24.30;58.70;;;;;;6184715;23;20076;-73
2022/07/12 08:07:26;;;;;;;1.77;0.60;;;24.30;58.70;;;;;;6186082;23;20075;-73
2022/07/12 08:09:51;;;;;;;1.05;0.50;;;24.30;58.90;;;;;;6186027;23;20005;-73
2022/07/12 08:12:17;;;;;;;1.38;0.70;;;24.30;58.80;;;;;;6186108;23;20059;-73
2022/07/12 08:14:43;;;;;;;0.50;0.50;;;24.30;58.80;;;;;;6186214;23;20426;-73
2022/07/12 08:17:08;;;;;;;1.92;0.68;;;24.30;58.80;;;;;;6186090;23;20075;-73
2022/07/12 08:19:34;;;;;;;0.85;0.77;;;24.30;58.80;;;;;;6184636;23;20001;-73
2022/07/12 08:22:00;;;;;;;2.20;0.63;;;24.30;58.70;;;;;;6184433;23;20013;-73
2022/07/12 08:24:25;;;;;;;1.08;0.70;;;24.30;58.70;;;;;;6186142;23;20081;-73
2022/07/12 08:26:51;;;;;;;0.50;0.50;;;24.30;58.70;;;;;;6186159;23;20005;-73
2022/07/12 08:29:17;;;;;;;0.70;0.70;;;24.30;58.70;;;;;;6185961;23;20033;-73
2022/07/12 08:31:42;;;;;;;1.27;0.63;;;24.30;58.70;;;;;;6185661;23;20441;-73
2022/07/12 08:34:08;;;;;;;0.95;0.70;;;24.40;58.70;;;;;;6184586;23;20012;-73
2022/07/12 08:36:34;;;;;;;1.67;0.80;;;24.40;58.60;;;;;;6185582;23;20012;-73
2022/07/12 08:39:00;;;;;;;2.40;0.57;;;24.40;58.60;;;;;;6185975;23;19997;-73
2022/07/12 08:41:25;;;;;;;1.98;0.70;;;24.40;58.50;;;;;;6159501;23;20013;-73
2022/07/12 08:43:51;;;;;;;1.23;0.70;;;24.40;58.50;;;;;;6185883;23;20093;-73
2022/07/12 08:46:17;;;;;;;1.08;0.60;;;24.40;58.60;;;;;;6185775;23;20001;-73
2022/07/12 08:48:43;;;;;;;1.75;0.55;;;24.40;58.60;;;;;;6185874;23;20386;-73
2022/07/12 08:51:10;;;;;;;1.08;0.68;;;24.40;58.60;;;;;;6184055;23;20036;-73
2022/07/12 08:53:36;;;;;;;1.65;0.80;;;24.40;58.90;;;;;;6184280;23;20075;-73
2022/07/12 08:56:03;;;;;;;2.10;0.60;;;24.40;58.60;;;;;;6159619;23;20481;-73
2022/07/12 08:58:28;;;;;;;1.23;0.70;;;24.40;58.60;;;;;;6184071;23;20009;-73
2022/07/12 09:00:54;;;;;;;1.55;0.77;;;24.40;59.50;;;;;;6185530;23;20327;-73
2022/07/12 09:03:20;;;;;;;1.98;0.90;;;24.40;58.50;;;;;;6185665;23;20056;-73
2022/07/12 09:05:53;;;;;;;0.80;0.70;;;24.40;59.50;;;;;;6183826;23;20001;-73
2022/07/12 09:08:24;;;;;;;1.35;0.70;;;24.40;58.50;;;;;;6185750;23;20080;-73
2022/07/12 09:10:50;;;;;;;0.70;0.55;;;24.40;58.60;;;;;;6184129;23;20001;-73
2022/07/12 09:13:16;;;;;;;2.33;0.77;;;24.50;58.60;;;;;;6185546;23;19997;-73
2022/07/12 09:15:41;;;;;;;1.05;0.60;;;24.50;58.50;;;;;;6159236;23;20404;-73
2022/07/12 09:18:14;;;;;;;1.05;0.80;;;24.50;58.40;;;;;;6185630;23;20001;-73
2022/07/12 09:20:41;;;;;;;1.83;0.95;;;24.50;58.40;;;;;;6183865;23;20437;-73
2022/07/12 09:23:08;;;;;;;2.63;0.63;;;24.50;58.40;;;;;;6184006;23;20005;-73
2022/07/12 09:25:35;;;;;;;3.75;0.80;;;24.50;58.30;;;;;;6185553;23;20001;-73
2022/07/12 09:28:03;;;;;;;1.33;0.65;;;24.50;58.20;;;;;;6184066;23;20005;-73
2022/07/12 09:30:29;;;;;;;3.10;1.20;;;24.50;58.30;;;;;;6185239;23;20147;-73
2022/07/12 09:38:28;;;;;;;1.63;0.63;;;24.50;57.90;;;;;;6163282;23;20017;-73
2022/07/12 09:40:55;;;;;;;0.82;0.70;;;24.60;58.00;;;;;;6183844;23;20454;-73
2022/07/12 09:43:20;;;;;;;0.47;0.45;;;24.60;58.00;;;;;;6185793;23;20005;-73
2022/07/12 09:45:49;;;;;;;1.73;0.63;;;24.60;58.00;;;;;;6183620;23;20426;-73
2022/07/12 09:48:15;;;;;;;1.27;0.52;;;24.60;58.00;;;;;;6183832;23;20005;-73
2022/07/12 09:50:45;;;;;;;2.22;0.60;;;24.60;58.10;;;;;;6184875;23;20005;-73
2022/07/12 09:53:11;;;;;;;0.57;0.40;;;24.60;58.00;;;;;;6159721;23;19997;-73
2022/07/12 09:55:37;;;;;;;1.08;0.70;;;24.60;57.90;;;;;;6158975;23;20068;-73
2022/07/12 09:58:04;;;;;;;0.57;0.57;;;24.60;58.00;;;;;;6183664;23;20023;-73
2022/07/12 10:00:30;;;;;;;0.60;0.57;;;24.60;58.00;;;;;;6159265;23;20008;-73
2022/07/12 10:02:57;;;;;;;1.48;0.57;;;24.60;58.00;;;;;;6183385;23;20005;-73
2022/07/12 10:05:23;;;;;;;0.90;0.60;;;24.60;57.90;;;;;;6159171;23;20001;-73
2022/07/12 10:07:49;;;;;;;3.72;0.82;;;24.60;57.90;;;;;;6184981;23;20039;-73
2022/07/12 10:10:14;;;;;;;1.08;0.45;;;24.60;58.00;;;;;;6159092;23;20001;-73
2022/07/12 10:12:40;;;;;;;1.52;0.60;;;24.60;57.90;;;;;;6158614;23;20002;-73
2022/07/12 10:15:15;;;;;;;2.15;0.68;;;24.60;57.90;;;;;;6158921;23;20009;-73
2022/07/12 10:17:41;;;;;;;1.58;0.65;;;24.60;58.90;;;;;;6159797;23;20012;-73
2022/07/12 10:20:18;;;;;;;0.65;0.50;;;24.70;58.00;;;;;;6159114;23;20001;-73
2022/07/12 10:22:44;;;;;;;0.50;0.50;;;24.70;58.00;;;;;;6183663;23;20135;-73
2022/07/12 10:25:25;;;;;;;1.85;0.60;;;24.70;58.00;;;;;;6185023;23;20044;-73
2022/07/12 10:27:51;;;;;;;1.40;0.50;;;24.70;58.00;;;;;;6184845;23;20001;-73
2022/07/12 10:30:18;;;;;;;0.93;0.55;;;24.70;57.50;;;;;;6184730;23;20008;-73
2022/07/12 10:32:44;;;;;;;0.63;0.50;;;24.70;57.80;;;;;;6183386;23;20008;-73
2022/07/12 10:35:15;;;;;;;0.75;0.70;;;24.70;57.90;;;;;;6183484;23;20024;-73
2022/07/12 10:37:40;;;;;;;1.67;0.60;;;24.70;57.60;;;;;;6184602;23;19997;-73
2022/07/12 10:40:19;;;;;;;1.20;0.45;;;24.70;57.60;;;;;;6198170;23;20086;-73
2022/07/12 10:43:00;;;;;;;0.80;0.55;;;24.70;57.50;;;;;;6188516;23;20083;-73
2022/07/12 10:45:32;;;;;;;0.70;0.60;;;24.70;57.80;;;;;;6214915;23;20007;-73
2022/07/12 10:48:05;;;;;;;1.47;0.80;;;24.80;57.80;;;;;;6164083;23;19997;-73
2022/07/12 10:50:44;;;;;;;1.02;0.55;;;24.70;57.50;;;;;;6164206;23;20437;-73
2022/07/12 10:53:20;;;;;;;0.60;0.60;;;24.70;57.50;;;;;;6214797;23;19996;-73
2022/07/12 10:56:04;;;;;;;0.65;0.43;;;24.80;57.60;;;;;;6214791;23;20020;-73
2022/07/12 10:58:30;;;;;;;0.90;0.50;;;24.80;57.40;;;;;;6214709;23;20004;-73
2022/07/12 11:00:56;;;;;;;1.38;0.70;;;24.80;57.30;;;;;;6187994;23;20090;-73
2022/07/12 11:03:23;;;;;;;0.85;0.57;;;24.80;57.30;;;;;;6163611;23;20005;-73
2022/07/12 11:05:49;;;;;;;0.77;0.43;;;24.80;57.30;;;;;;6188371;23;20007;-73
2022/07/12 11:08:15;;;;;;;1.23;0.50;;;24.80;57.40;;;;;;6188336;23;20075;-73
2022/07/12 11:10:58;;;;;;;0.85;0.57;;;24.80;57.30;;;;;;6188321;23;20430;-73
2022/07/12 11:13:25;;;;;;;1.30;0.55;;;24.80;57.10;;;;;;6191576;23;19996;-73
2022/07/12 11:16:00;;;;;;;0.50;0.50;;;24.80;56.90;;;;;;6163517;23;20008;-73
2022/07/12 11:18:30;;;;;;;0.60;0.60;;;24.80;57.00;;;;;;6188281;23;20564;-73
2022/07/12 11:20:59;;;;;;;1.77;0.60;;;24.80;56.80;;;;;;6188439;23;20001;-73
2022/07/12 11:23:29;;;;;;;2.25;0.80;;;24.80;56.90;;;;;;6187823;23;20488;-75
2022/07/12 11:26:01;;;;;;;0.60;0.57;;;24.90;56.30;;;;;;6190753;23;20012;-76
2022/07/12 11:28:27;;;;;;;;;;;24.90;55.50;;;;;;6165011;23;20000;-74
2022/07/12 11:30:54;;;;;;;1.55;0.50;;;24.90;56.00;;;;;;6214917;23;19935;-74
2022/07/12 11:33:26;;;;;;;0.65;0.50;;;24.90;56.30;;;;;;6215159;23;20051;-74
2022/07/12 11:35:52;;;;;;;0.80;0.60;;;24.90;56.50;;;;;;6188723;23;20540;-74
2022/07/12 11:38:25;;;;;;;0.50;0.50;;;24.90;56.60;;;;;;6188962;23;19996;-74
2022/07/12 11:40:57;;;;;;;1.40;0.50;;;24.90;56.60;;;;;;6188922;23;20322;-74
2022/07/12 11:43:24;;;;;;;1.48;0.70;;;24.90;56.40;;;;;;6164238;23;20465;-74
2022/07/12 11:45:49;;;;;;;1.52;0.60;;;24.90;56.40;;;;;;6214659;23;20449;-74
2022/07/12 11:48:15;;;;;;;2.70;0.57;;;24.90;56.40;;;;;;6189432;23;20007;-74
2022/07/12 11:50:46;;;;;;;1.65;0.57;;;24.90;56.40;;;;;;6163278;23;20007;-74
2022/07/12 11:53:23;;;;;;;0.90;0.50;;;24.90;56.40;;;;;;6189962;23;20311;-74
2022/07/12 11:55:55;;;;;;;0.60;0.60;;;24.90;56.30;;;;;;6216154;23;20004;-74
2022/07/12 11:58:21;;;;;;;1.42;0.60;;;24.90;56.30;;;;;;6216181;23;20369;-74
2022/07/12 12:00:47;;;;;;;0.40;0.40;;;24.90;56.30;;;;;;6164707;23;20000;-74
2022/07/12 12:03:14;;;;;;;0.75;0.60;;;24.90;56.30;;;;;;6164842;23;20001;-74
2022/07/12 12:05:40;;;;;;;4.00;0.60;;;25.00;56.30;;;;;;6189796;23;20441;-74
2022/07/12 12:08:06;;;;;;;0.90;0.70;;;24.90;56.30;;;;;;6164972;23;20001;-74
2022/07/12 12:10:33;;;;;;;0.50;0.50;;;25.00;56.30;;;;;;6189756;23;20332;-74
2022/07/12 12:13:00;;;;;;;0.68;0.43;;;25.00;56.30;;;;;;6189796;23;20004;-74
2022/07/12 12:15:27;;;;;;;0.73;0.55;;;25.00;56.30;;;;;;6164641;23;20004;-74
2022/07/12 12:17:56;;;;;;;0.63;0.47;;;25.00;56.30;;;;;;6189803;23;20000;-74
2022/07/12 12:20:23;;;;;;;0.50;0.50;;;25.00;56.30;;;;;;6189583;23;20058;-75
2022/07/12 12:22:50;;;;;;;0.93;0.73;;;25.00;56.30;;;;;;6216054;23;20007;-74
2022/07/12 12:25:16;;;;;;;0.80;0.50;;;25.00;56.30;;;;;;6215943;23;20011;-73
2022/07/12 12:27:54;;;;;;;1.70;0.60;;;25.00;56.40;;;;;;6189770;23;20059;-75
2022/07/12 12:30:20;;;;;;;1.63;0.52;;;25.00;56.30;;;;;;6215907;23;20005;-75
2022/07/12 12:32:59;;;;;;;0.50;0.35;;;25.00;56.30;;;;;;6215739;23;20015;-78
2022/07/12 12:35:35;;;;;;;0.50;0.35;;;25.00;56.40;;;;;;6215555;23;20001;-76
2022/07/12 12:38:16;;;;;;;1.50;0.40;;;25.00;56.40;;;;;;6189616;23;19997;-73
2022/07/12 12:40:51;;;;;;;1.27;0.60;;;25.00;57.50;;;;;;6215960;23;20016;-74
2022/07/12 12:43:20;;;;;;;0.60;0.32;;;25.10;57.40;;;;;;6215044;23;20031;-73
2022/07/12 12:45:50;;;;;;;0.88;0.50;;;25.10;56.40;;;;;;6215917;23;20001;-74
2022/07/12 12:48:20;;;;;;;0.50;0.50;;;25.10;56.50;;;;;;6216216;23;20441;-75
2022/07/12 12:50:47;;;;;;;3.50;0.73;;;25.10;56.50;;;;;;6216202;23;20004;-75
2022/07/12 12:53:13;;;;;;;0.65;0.50;;;25.10;56.40;;;;;;6189263;23;19996;-74
2022/07/12 12:55:40;;;;;;;0.57;0.50;;;25.10;56.30;;;;;;6189649;23;20007;-73
2022/07/12 12:58:06;;;;;;;2.35;0.63;;;25.10;56.40;;;;;;6215348;23;20456;-73